Nearby METAR Reports

 

KSJC - San Jose, California, USA
Distance from station: NE 14km
Updated: 20/04/2021 21:53
Partly cloudy
Partly cloudy
 Wind from NW
Wind: NW 13 km/h
Temperature: 17°C
Dew Point: 7°C
Humidity: 52%
Barometer: 1013.9 hPa
Clouds: Partly cloudy
Visibility: 16 km
Cloud details: Few Clouds 457 m
Partly cloudy 3048 m
2021/04/20 19:53 KSJC 201953Z 31007KT 270V340 10SM FEW015 SCT100 17/07 A2994 RMK AO2 SLP136 T01720067
KNUQ - Moffett Nas/Mtn, California, USA
Distance from station: N 14km
Updated: 14/04/2021 00:40
NOT Current

 
2021/04/13 22:40 KNUQ 132240Z AUTO RMK AO2 PNO PWINO TSNO
 
KPAO - Palo Alto, California, USA
Distance from station: NNW 23km
Updated: 20/04/2021 21:47
Partly cloudy
Partly cloudy
 Wind from W
Wind: W 28 km/h, Gust: 39 km/h
Temperature: 15°C
Dew Point: 8°C
Humidity: 63%
Barometer: 1014.2 hPa
Clouds: Partly cloudy
Visibility: 16 km
Cloud details: Partly cloudy 1524 m
2021/04/20 19:47 KPAO 201947Z 27015G21KT 10SM SCT050 15/08 A2995
KRHV - San Jose/Reid, California, USA
Distance from station: ENE 19km
Updated: 20/04/2021 20:54
Mostly cloudy
Mostly cloudy
 Wind from varies
Wind: varies 7 km/h
Temperature: 17°C
Dew Point: 7°C
Humidity: 52%
Barometer: 1014.9 hPa
Clouds: Mostly cloudy
Visibility: 16 km
Cloud details: Partly cloudy 1219 m
Mostly cloudy 3658 m
2021/04/20 18:54 KRHV 201854Z VRB04KT 10SM SCT040 BKN120 17/07 A2997
 
KOAK - Oakland, California, USA
Distance from station: NNW 50km
Updated: 20/04/2021 21:53
Partly cloudy
Partly cloudy
 Wind from WSW
Wind: WSW 26 km/h
Temperature: 16°C
Dew Point: 9°C
Humidity: 63%
Barometer: 1013.2 hPa
Clouds: Partly cloudy
Visibility: 16 km
Cloud details: Partly cloudy 732 m
2021/04/20 19:53 KOAK 201953Z 24014KT 10SM SCT024 16/09 A2992 RMK AO2 SLP132 T01610094
KSQL - San Carlos Airpo, California, USA
Distance from station: NW 34km
Updated: 20/04/2021 20:57
Mostly cloudy
Mostly cloudy
 Wind from SW
Wind: SW 22 km/h, Gust: 33 km/h
Temperature: 13°C
Dew Point: 8°C
Humidity: 72%
Barometer: 1015.2 hPa
Clouds: Mostly cloudy
Visibility: 16 km
Cloud details: Mostly cloudy 518 m
2021/04/20 18:57 KSQL 201857Z 23012G18KT 10SM BKN017 13/08 A2998
 
KSFO - San Francisco, California, USA
Distance from station: NW 49km
Updated: 20/04/2021 21:56
Mostly cloudy
Mostly cloudy
 Wind from W
Wind: W 30 km/h, Gust: 46 km/h
Temperature: 15°C
Dew Point: 8°C
Humidity: 63%
Barometer: 1013.9 hPa
Clouds: Mostly cloudy
Visibility: 16 km
Cloud details: Few Clouds 183 m
Mostly cloudy 396 m
2021/04/20 19:56 KSFO 201956Z 27016G25KT 10SM FEW006 BKN013 15/08 A2994 RMK AO2 PK WND 28032/1913 SLP137 T01500083 $
KE16 - San Martin, California, USA
Distance from station: ESE 43km
Updated: 20/04/2021 21:55
Clear
Clear
 Wind from S
Wind: S 13 km/h
Temperature: 17°C
Dew Point: 8°C
Humidity: 56%
Barometer: 1014.2 hPa
Clouds: Clear
Visibility: 16 km
2021/04/20 19:55 KE16 201955Z AUTO 18007KT 10SM CLR 17/08 A2995 RMK AO2 PWINO PNO
 
KWVI - Watsonville, California, USA
Distance from station: SSE 44km
Updated: 20/04/2021 21:53
Overcast
Overcast
 Wind from SW
Wind: SW 13 km/h
Temperature: 16°C
Dew Point: 9°C
Humidity: 63%
Barometer: 1014.6 hPa
Clouds: Overcast
Visibility: 16 km
Cloud details: Overcast 732 m
2021/04/20 19:53 KWVI 201953Z AUTO 23007KT 10SM OVC024 16/09 A2996 RMK AO2 SLP146 T01610094
KHAF - Half Moon Bay, California, USA
Distance from station: WNW 50km
Updated: 20/04/2021 21:55
Haze, Mostly cloudy
Haze, Mostly cloudy
 Wind from NW
Wind: NW 33 km/h, Gust: 48 km/h
Temperature: 12°C
Dew Point: 9°C
Humidity: 82%
Barometer: 1015.2 hPa
Summary: Haze
Clouds: Mostly cloudy
Visibility: 6 km
Cloud details: Mostly cloudy 366 m
2021/04/20 19:55 KHAF 201955Z AUTO 32018G26KT 4SM HZ BKN012 12/09 A2998 RMK AO2
 
KHWD - Hayward, California, USA
Distance from station: N 44km
Updated: 20/04/2021 21:54
Mostly cloudy
Mostly cloudy
 Wind from SW
Wind: SW 24 km/h, Gust: 35 km/h
Temperature: 13°C
Dew Point: 8°C
Humidity: 72%
Barometer: 1013.9 hPa
Clouds: Mostly cloudy
Visibility: 16 km
Cloud details: Mostly cloudy 427 m
2021/04/20 19:54 KHWD 201954Z 22013G19KT 10SM BKN014 13/08 A2994 RMK AO2 SLP147 T01330078
KLVK - Livermore, California, USA
Distance from station: NNE 51km
Updated: 20/04/2021 21:53
Clear
Clear
 Wind from SSW
Wind: SSW 26 km/h
Temperature: 17°C
Dew Point: 7°C
Humidity: 52%
Barometer: 1012.5 hPa
Clouds: Clear
Visibility: 16 km
2021/04/20 19:53 KLVK 201953Z 20014KT 10SM CLR 17/07 A2990 RMK AO2 SLP123 T01670072